Time;durP1;ratioP1;P1;durP2;ratioP2;P2;SDS_P1;SDS_P2;PMS_P1;PMS_P2;Temp;Humidity;BMP_temperature;BMP_pressure;BME280_temperature;BME280_humidity;BME280_pressure;Samples;Min_cycle;Max_cycle;Signal;HPM_P1;HPM_P2
2023/04/18 00:01:23;;;;;;;15.27;10.37;;;;;;;6.92;100.00;96621.72;6181596;23;20020;-87
2023/04/18 00:03:49;;;;;;;14.60;9.93;;;;;;;6.96;100.00;96625.75;6182452;23;20017;-88
2023/04/18 00:06:15;;;;;;;15.53;10.50;;;;;;;7.07;100.00;96624.84;6181892;23;20033;-88
2023/04/18 00:08:44;;;;;;;14.03;10.10;;;;;;;7.09;100.00;96617.72;6180870;23;20349;-88
2023/04/18 00:11:09;;;;;;;14.30;9.60;;;;;;;7.07;100.00;96615.22;6180892;23;20001;-88
2023/04/18 00:13:37;;;;;;;14.27;9.60;;;;;;;7.02;100.00;96612.16;6156650;23;20325;-88
2023/04/18 00:16:03;;;;;;;15.73;10.20;;;;;;;6.96;100.00;96612.66;6156586;23;20024;-88
2023/04/18 00:18:28;;;;;;;16.77;10.83;;;;;;;7.01;100.00;96609.69;6156924;23;20020;-87
2023/04/18 00:20:55;;;;;;;15.03;10.23;;;;;;;7.05;100.00;96606.69;6181128;23;20441;-88
2023/04/18 00:23:21;;;;;;;16.57;10.23;;;;;;;6.97;100.00;96603.03;6181417;23;20021;-88
2023/04/18 00:25:47;;;;;;;14.23;9.30;;;;;;;6.95;100.00;96602.34;6181679;23;20475;-88
2023/04/18 00:28:13;;;;;;;14.10;9.67;;;;;;;6.93;100.00;96602.47;6181347;23;20067;-87
2023/04/18 00:30:39;;;;;;;14.70;9.43;;;;;;;6.91;100.00;96595.69;6180667;23;20021;-88
2023/04/18 00:33:05;;;;;;;14.53;10.17;;;;;;;6.89;100.00;96595.00;6156051;23;20068;-87
2023/04/18 00:35:30;;;;;;;13.00;10.07;;;;;;;6.90;100.00;96592.25;6181542;23;19997;-88
2023/04/18 00:38:08;;;;;;;14.40;9.83;;;;;;;6.79;100.00;96598.38;6156980;23;20009;-88
2023/04/18 00:40:35;;;;;;;17.83;9.63;;;;;;;6.84;100.00;96585.78;6155693;23;20020;-88
2023/04/18 00:43:06;;;;;;;13.60;9.43;;;;;;;6.69;100.00;96600.09;6156663;23;20079;-88
2023/04/18 00:45:32;;;;;;;13.53;9.40;;;;;;;6.85;100.00;96589.22;6155557;23;20017;-88
2023/04/18 00:47:59;;;;;;;17.47;10.50;;;;;;;6.78;100.00;96590.69;6157563;23;20019;-87
2023/04/18 00:50:25;;;;;;;14.87;9.83;;;;;;;6.76;100.00;96585.56;6160618;23;20091;-88
2023/04/18 00:52:52;;;;;;;13.63;9.70;;;;;;;6.78;100.00;96588.88;6186875;23;20009;-88
2023/04/18 00:55:18;;;;;;;14.60;9.87;;;;;;;6.79;100.00;96595.75;6160829;23;20009;-87
2023/04/18 00:57:44;;;;;;;14.37;10.50;;;;;;;6.78;100.00;96583.66;6155353;23;20043;-88
2023/04/18 01:00:11;;;;;;;14.67;10.57;;;;;;;6.85;100.00;96597.06;6180386;23;20047;-88
2023/04/18 01:02:38;;;;;;;15.50;10.27;;;;;;;6.94;100.00;96595.44;6179886;23;20013;-88
2023/04/18 01:05:05;;;;;;;14.67;9.47;;;;;;;6.85;100.00;96592.66;6157113;23;20028;-88
2023/04/18 01:07:32;;;;;;;14.90;10.47;;;;;;;6.88;100.00;96590.75;6180334;23;20099;-88
2023/04/18 01:09:58;;;;;;;14.63;9.87;;;;;;;6.82;100.00;96581.63;6156997;23;20024;-87
2023/04/18 01:12:24;;;;;;;13.93;8.60;;;;;;;6.77;100.00;96579.41;6180111;23;20013;-88
2023/04/18 01:14:53;;;;;;;18.67;10.40;;;;;;;6.82;100.00;96579.84;6180673;23;20464;-88
2023/04/18 01:17:18;;;;;;;15.47;10.13;;;;;;;6.83;100.00;96581.47;6156347;23;20067;-87
2023/04/18 01:19:47;;;;;;;15.13;9.50;;;;;;;6.83;100.00;96573.63;6181071;23;20013;-88
2023/04/18 01:22:13;;;;;;;16.03;10.20;;;;;;;6.78;100.00;96573.22;6180105;23;20043;-88
2023/04/18 01:24:40;;;;;;;13.70;9.60;;;;;;;6.78;100.00;96575.00;6156293;23;20441;-88
2023/04/18 01:27:13;;;;;;;15.43;10.63;;;;;;;6.65;100.00;96574.34;6156645;23;20023;-88
2023/04/18 01:29:39;;;;;;;14.13;10.17;;;;;;;6.74;100.00;96577.03;6155621;23;20068;-88
2023/04/18 01:32:05;;;;;;;15.27;10.57;;;;;;;6.76;100.00;96575.09;6176954;23;20005;-88
2023/04/18 01:34:31;;;;;;;17.53;11.07;;;;;;;6.71;100.00;96568.63;6179045;23;20020;-88
2023/04/18 01:36:56;;;;;;;17.57;11.60;;;;;;;6.73;100.00;96569.31;6180122;23;20021;-88
2023/04/18 01:39:22;;;;;;;15.90;11.23;;;;;;;6.76;100.00;96569.88;6177857;23;20054;-87
2023/04/18 01:41:48;;;;;;;15.63;11.03;;;;;;;6.68;100.00;96569.69;6185709;23;20013;-88
2023/04/18 01:44:15;;;;;;;17.57;10.90;;;;;;;6.75;100.00;96563.00;6165382;23;20113;-88
2023/04/18 01:46:41;;;;;;;18.63;10.90;;;;;;;6.77;100.00;96568.94;6177122;23;20021;-88
2023/04/18 01:49:07;;;;;;;15.87;10.90;;;;;;;6.75;100.00;96563.00;6153978;23;20009;-88
2023/04/18 01:51:33;;;;;;;16.37;11.30;;;;;;;6.78;100.00;96556.69;6155960;23;20092;-87
2023/04/18 01:54:01;;;;;;;16.83;10.03;;;;;;;6.74;100.00;96555.28;6181067;23;20031;-88
2023/04/18 01:56:27;;;;;;;17.73;12.87;;;;;;;6.83;100.00;96557.13;6155145;23;20016;-87
2023/04/18 01:58:53;;;;;;;16.00;11.17;;;;;;;6.74;100.00;96550.91;6154275;23;20004;-88
2023/04/18 02:01:18;;;;;;;18.50;12.17;;;;;;;6.71;100.00;96545.94;6154108;23;20009;-88
2023/04/18 02:03:44;;;;;;;17.07;11.27;;;;;;;6.75;100.00;96547.31;6181953;23;20040;-88
2023/04/18 02:06:11;;;;;;;16.77;12.03;;;;;;;6.80;100.00;96547.75;6181230;23;20027;-88
2023/04/18 02:08:37;;;;;;;18.43;11.87;;;;;;;6.85;100.00;96542.97;6157593;23;20393;-88
2023/04/18 02:11:05;;;;;;;16.83;11.43;;;;;;;6.70;100.00;96544.25;6180619;23;20005;-88
2023/04/18 02:13:31;;;;;;;19.37;11.60;;;;;;;6.67;100.00;96548.91;6181018;23;20020;-88
2023/04/18 02:15:56;;;;;;;16.37;11.43;;;;;;;6.72;100.00;96550.19;6182076;23;20385;-88
2023/04/18 02:18:24;;;;;;;14.97;11.40;;;;;;;6.65;100.00;96551.66;6183284;23;20025;-88
2023/04/18 02:20:50;;;;;;;17.67;12.20;;;;;;;6.72;100.00;96549.38;6158424;23;20020;-88
2023/04/18 02:23:17;;;;;;;15.30;11.77;;;;;;;6.76;100.00;96543.75;6157971;23;20012;-88
2023/04/18 02:25:42;;;;;;;17.00;12.30;;;;;;;6.77;100.00;96547.19;6157770;23;20051;-88
2023/04/18 02:28:08;;;;;;;17.87;12.87;;;;;;;6.72;100.00;96546.75;6180437;23;20005;-88
2023/04/18 02:30:34;;;;;;;16.67;12.50;;;;;;;6.67;100.00;96549.72;6156082;23;20017;-88
2023/04/18 02:33:01;;;;;;;16.40;11.67;;;;;;;6.67;100.00;96548.91;6157732;23;20005;-88
2023/04/18 02:35:28;;;;;;;16.93;11.63;;;;;;;6.66;100.00;96550.69;6181924;23;20380;-88
2023/04/18 02:37:54;;;;;;;17.13;11.60;;;;;;;6.69;100.00;96542.59;6157976;23;20012;-88
2023/04/18 02:40:19;;;;;;;18.80;12.93;;;;;;;6.75;100.00;96539.47;6158182;23;20075;-88
2023/04/18 02:42:45;;;;;;;19.67;13.43;;;;;;;6.60;100.00;96544.19;6182282;23;20009;-88
2023/04/18 02:45:13;;;;;;;17.40;12.43;;;;;;;6.73;100.00;96545.78;6182486;23;20013;-88
2023/04/18 02:47:40;;;;;;;18.07;12.37;;;;;;;6.63;100.00;96540.50;6158045;23;20071;-89
2023/04/18 02:50:06;;;;;;;18.80;13.03;;;;;;;6.63;100.00;96537.88;6158743;23;20012;-88
2023/04/18 02:52:33;;;;;;;17.97;12.53;;;;;;;6.74;100.00;96530.00;6158077;23;20020;-88
2023/04/18 02:54:58;;;;;;;18.07;12.80;;;;;;;6.81;100.00;96540.75;6158358;23;20013;-88
2023/04/18 02:57:29;;;;;;;19.73;13.23;;;;;;;6.78;100.00;96539.22;6183036;23;20009;-88
2023/04/18 03:00:33;;;;;;;19.25;12.68;;;;;;;6.77;100.00;96539.34;6185044;23;20012;-88
2023/04/18 03:03:19;;;;;;;17.47;12.47;;;;;;;6.80;100.00;96547.75;6162264;23;20403;-88
2023/04/18 03:05:57;;;;;;;18.07;12.53;;;;;;;6.66;100.00;96532.41;6160716;23;20040;-88
2023/04/18 03:08:23;;;;;;;22.00;13.97;;;;;;;6.66;100.00;96545.47;6182752;23;20031;-88
2023/04/18 03:10:49;;;;;;;18.57;12.93;;;;;;;6.55;100.00;96542.91;6157012;23;20012;-88
2023/04/18 03:13:17;;;;;;;20.40;13.80;;;;;;;6.49;100.00;96540.81;6157344;23;20433;-88
2023/04/18 03:15:42;;;;;;;20.03;14.07;;;;;;;6.62;100.00;96551.91;6157001;23;20023;-88
2023/04/18 03:18:08;;;;;;;24.07;14.40;;;;;;;6.69;100.00;96550.44;6182347;23;20023;-88
2023/04/18 03:20:39;;;;;;;20.87;14.60;;;;;;;6.66;100.00;96548.06;6159347;23;20349;-88
2023/04/18 03:23:06;;;;;;;19.17;13.73;;;;;;;6.67;100.00;96546.28;6159008;23;20016;-88
2023/04/18 03:25:37;;;;;;;19.03;14.30;;;;;;;6.63;100.00;96544.88;6157803;23;20177;-87
2023/04/18 03:28:04;;;;;;;19.63;13.67;;;;;;;6.71;100.00;96534.66;6201101;23;20004;-88
2023/04/18 03:30:33;;;;;;;19.20;14.47;;;;;;;6.59;100.00;96541.72;6157304;23;20051;-88
2023/04/18 03:33:01;;;;;;;20.77;13.57;;;;;;;6.61;100.00;96539.81;6181378;23;20016;-87
2023/04/18 03:35:27;;;;;;;20.20;14.33;;;;;;;6.69;100.00;96542.59;6157579;23;20099;-88
2023/04/18 03:37:53;;;;;;;19.40;13.70;;;;;;;6.58;100.00;96546.09;6157264;23;20449;-87
2023/04/18 03:40:29;;;;;;;21.13;14.40;;;;;;;6.67;100.00;96543.66;6182272;23;20676;-88
2023/04/18 03:43:00;;;;;;;20.17;14.67;;;;;;;6.63;100.00;96543.09;6181844;23;20009;-88
2023/04/18 03:45:26;;;;;;;20.10;14.63;;;;;;;6.79;100.00;96543.50;6157713;23;20019;-89
2023/04/18 03:47:52;;;;;;;20.57;14.73;;;;;;;6.70;100.00;96549.47;6170764;23;20012;-91
2023/04/18 03:50:19;;;;;;;20.37;13.93;;;;;;;6.66;100.00;96542.03;6160568;23;20017;-88
2023/04/18 03:52:46;;;;;;;19.97;13.43;;;;;;;6.68;100.00;96537.50;6159882;23;19997;-90
2023/04/18 03:55:13;;;;;;;35.30;25.50;;;;;;;6.57;100.00;96541.00;6166492;23;20421;-91
2023/04/18 03:58:06;;;;;;;36.80;25.83;;;;;;;6.75;100.00;96544.72;6177723;23;20015;-92
2023/04/18 04:00:32;;;;;;;21.38;15.68;;;;;;;6.54;100.00;96547.31;6186902;23;20011;-93
2023/04/18 04:03:05;;;;;;;21.87;15.33;;;;;;;6.56;100.00;96541.97;6214053;23;20045;-94
2023/04/18 04:05:31;;;;;;;22.53;14.50;;;;;;;6.51;100.00;96554.59;6189144;23;20001;-94
2023/04/18 04:07:57;;;;;;;18.93;14.03;;;;;;;6.61;100.00;96552.88;6213601;23;20001;-94
2023/04/18 04:10:22;;;;;;;21.10;14.73;;;;;;;6.76;100.00;96546.34;6187018;23;20445;-93
2023/04/18 04:12:49;;;;;;;20.40;14.70;;;;;;;6.62;100.00;96546.69;6213565;23;20060;-94
2023/04/18 04:15:15;;;;;;;21.33;14.53;;;;;;;6.65;100.00;96548.22;6193996;23;20013;-94
2023/04/18 04:17:49;;;;;;;19.70;13.63;;;;;;;6.72;100.00;96550.19;6185761;23;20029;-94
2023/04/18 04:20:21;;;;;;;22.07;14.57;;;;;;;6.68;100.00;96555.81;6209848;23;19997;-94
2023/04/18 04:22:48;;;;;;;21.48;14.80;;;;;;;6.50;100.00;96550.28;6189202;23;20013;-94
2023/04/18 04:25:16;;;;;;;19.47;14.07;;;;;;;6.48;100.00;96558.28;6162820;23;20023;-94
2023/04/18 04:27:42;;;;;;;22.43;15.30;;;;;;;6.56;100.00;96552.41;6187810;23;20021;-94
2023/04/18 04:30:11;;;;;;;20.30;14.33;;;;;;;6.57;100.00;96565.38;6187497;23;20016;-94
2023/04/18 04:32:37;;;;;;;19.73;13.67;;;;;;;6.33;100.00;96572.56;6187705;23;20009;-94
2023/04/18 04:35:04;;;;;;;23.50;15.17;;;;;;;6.53;100.00;96557.88;6187362;23;20452;-94
2023/04/18 04:37:32;;;;;;;22.13;14.73;;;;;;;6.28;100.00;96570.34;6162712;23;20319;-94
2023/04/18 04:40:16;;;;;;;22.50;14.50;;;;;;;6.26;100.00;96564.41;6165581;23;20001;-94
2023/04/18 04:42:52;;;;;;;21.43;14.83;;;;;;;6.40;100.00;96573.72;6187278;23;20009;-94
2023/04/18 04:45:22;;;;;;;23.47;15.73;;;;;;;6.33;100.00;96573.41;6163006;23;20021;-94
2023/04/18 04:47:48;;;;;;;21.60;14.93;;;;;;;6.43;100.00;96577.88;6159189;23;20017;-94
2023/04/18 04:50:14;;;;;;;21.10;15.10;;;;;;;6.45;100.00;96568.16;6186196;23;20410;-93
2023/04/18 04:52:41;;;;;;;22.90;16.07;;;;;;;6.24;100.00;96574.16;6160965;23;20016;-94
2023/04/18 04:55:07;;;;;;;22.27;15.13;;;;;;;6.34;100.00;96569.84;6185645;23;20009;-93
2023/04/18 04:57:33;;;;;;;22.23;16.03;;;;;;;6.44;100.00;96572.53;6160063;23;20009;-93
2023/04/18 05:00:13;;;;;;;24.03;15.77;;;;;;;6.44;100.00;96577.78;6185001;23;20005;-94
2023/04/18 05:02:38;;;;;;;22.53;16.23;;;;;;;6.48;100.00;96580.97;6160358;23;20017;-94
2023/04/18 05:05:04;;;;;;;21.40;15.70;;;;;;;6.47;100.00;96571.44;6185391;23;20305;-93
2023/04/18 05:07:30;;;;;;;22.47;16.40;;;;;;;6.56;100.00;96576.75;6186633;23;20436;-94
2023/04/18 05:09:55;;;;;;;23.37;16.77;;;;;;;6.53;100.00;96574.38;6166620;23;20039;-94
2023/04/18 05:12:36;;;;;;;25.63;16.20;;;;;;;6.46;100.00;96577.63;6181669;23;20017;-92
2023/04/18 05:15:05;;;;;;;24.30;15.73;;;;;;;6.53;100.00;96589.25;6158319;23;20017;-94
2023/04/18 05:17:31;;;;;;;23.03;15.73;;;;;;;6.51;100.00;96583.31;6158357;23;20462;-94
2023/04/18 05:20:01;;;;;;;22.30;16.23;;;;;;;6.46;100.00;96586.28;6180944;23;20013;-94
2023/04/18 05:22:31;;;;;;;23.77;16.17;;;;;;;6.53;100.00;96594.47;6181743;23;20009;-94
2023/04/18 05:24:57;;;;;;;22.20;16.00;;;;;;;6.52;100.00;96598.03;6157807;23;20017;-93
2023/04/18 05:27:23;;;;;;;22.50;15.37;;;;;;;6.65;100.00;96587.41;6184713;23;20668;-93
2023/04/18 05:29:49;;;;;;;21.73;15.77;;;;;;;6.67;100.00;96590.72;6158568;23;20095;-93
2023/04/18 05:32:14;;;;;;;22.63;15.97;;;;;;;6.80;100.00;96588.75;6183254;23;20001;-94
2023/04/18 05:34:41;;;;;;;26.93;17.80;;;;;;;6.83;100.00;96586.72;6158769;23;20031;-94
2023/04/18 05:37:06;;;;;;;27.73;18.40;;;;;;;6.75;100.00;96589.16;6159325;23;20009;-93
2023/04/18 05:39:32;;;;;;;26.50;16.00;;;;;;;6.68;100.00;96587.16;6159020;23;20005;-93
2023/04/18 05:41:57;;;;;;;25.37;17.60;;;;;;;6.75;100.00;96589.16;6184468;23;20009;-94
2023/04/18 05:44:23;;;;;;;24.27;17.90;;;;;;;6.85;100.00;96589.22;6183578;23;20016;-95
2023/04/18 05:46:50;;;;;;;25.27;17.30;;;;;;;6.66;100.00;96597.72;6160572;23;20048;-95
2023/04/18 05:49:20;;;;;;;27.00;18.30;;;;;;;6.55;100.00;96603.03;6184143;23;20013;-94
2023/04/18 05:51:48;;;;;;;26.30;17.27;;;;;;;6.73;100.00;96596.25;6159675;23;20016;-94
2023/04/18 05:54:18;;;;;;;23.97;17.07;;;;;;;6.61;100.00;96603.34;6184183;23;20017;-95
2023/04/18 05:56:43;;;;;;;24.27;16.37;;;;;;;6.47;100.00;96602.78;6184958;23;20013;-94
2023/04/18 05:59:26;;;;;;;26.07;16.67;;;;;;;6.74;100.00;96603.19;6158580;23;20087;-95
2023/04/18 06:01:52;;;;;;;21.75;14.07;;;;;;;6.97;100.00;96598.63;6186145;23;20048;-95
2023/04/18 06:04:18;;;;;;;26.43;17.23;;;;;;;6.96;100.00;96596.16;6161303;23;20013;-94
2023/04/18 06:06:44;;;;;;;26.93;16.43;;;;;;;6.94;100.00;96598.06;6182990;23;20040;-94
2023/04/18 06:09:10;;;;;;;24.30;15.97;;;;;;;6.97;100.00;96593.41;6157936;23;20001;-94
2023/04/18 06:11:57;;;;;;;27.63;17.40;;;;;;;7.06;100.00;96595.25;6182658;23;20020;-94
2023/04/18 06:14:24;;;;;;;29.70;18.03;;;;;;;7.08;100.00;96597.75;6157915;23;20021;-95
2023/04/18 06:16:54;;;;;;;27.47;17.90;;;;;;;7.12;100.00;96596.53;6158498;23;20020;-94
2023/04/18 06:19:27;;;;;;;28.13;20.13;;;;;;;7.09;100.00;96604.63;6158480;23;20017;-95
2023/04/18 06:21:53;;;;;;;27.27;17.73;;;;;;;7.16;100.00;96610.19;6182856;23;20073;-94
2023/04/18 06:24:22;;;;;;;26.97;17.30;;;;;;;7.02;100.00;96611.34;6185120;23;20099;-94
2023/04/18 06:26:57;;;;;;;27.43;18.33;;;;;;;7.14;100.00;96618.13;6160101;23;20023;-94
2023/04/18 06:29:25;;;;;;;29.23;18.20;;;;;;;7.14;100.00;96612.91;6159433;23;20013;-94
2023/04/18 06:31:51;;;;;;;26.17;18.20;;;;;;;7.28;100.00;96607.38;6182377;23;20017;-94
2023/04/18 06:34:19;;;;;;;26.27;18.03;;;;;;;7.28;100.00;96612.59;6185147;23;20357;-94
2023/04/18 06:36:48;;;;;;;27.30;18.83;;;;;;;7.29;100.00;96609.00;6160452;23;20096;-93
2023/04/18 06:39:16;;;;;;;27.03;17.90;;;;;;;7.31;100.00;96619.38;6185078;23;20009;-94
2023/04/18 06:41:49;;;;;;;25.90;18.13;;;;;;;7.30;100.00;96610.66;6184976;23;20009;-93
2023/04/18 06:44:34;;;;;;;;;;;;;;;7.32;100.00;96613.16;6162181;23;20016;-95
2023/04/18 06:47:00;;;;;;;25.27;16.93;;;;;;;7.41;100.00;96622.00;6134694;23;19916;-93
2023/04/18 06:49:26;;;;;;;27.60;18.43;;;;;;;7.53;100.00;96615.75;6185379;23;20032;-93
2023/04/18 06:52:03;;;;;;;26.43;17.03;;;;;;;7.39;100.00;96621.31;6186286;23;20009;-93
2023/04/18 06:54:28;;;;;;;28.57;19.57;;;;;;;7.40;100.00;96615.13;6195867;23;20021;-93
2023/04/18 06:56:54;;;;;;;29.83;21.63;;;;;;;7.68;100.00;96617.06;6207951;23;20021;-93
2023/04/18 06:59:25;;;;;;;25.43;18.17;;;;;;;7.65;100.00;96617.31;6185193;23;20043;-94
2023/04/18 07:01:51;;;;;;;24.13;18.07;;;;;;;7.63;100.00;96619.22;6159748;23;20109;-94
2023/04/18 07:04:16;;;;;;;23.97;18.43;;;;;;;7.93;100.00;96617.56;6185199;23;20005;-94
2023/04/18 07:06:42;;;;;;;27.53;20.67;;;;;;;8.07;100.00;96619.78;6184995;23;20016;-94
2023/04/18 07:09:08;;;;;;;27.47;19.17;;;;;;;8.25;100.00;96612.13;6159533;23;20013;-93
2023/04/18 07:11:39;;;;;;;25.70;18.70;;;;;;;8.29;100.00;96607.44;6158826;23;20384;-93
2023/04/18 07:14:05;;;;;;;27.77;18.93;;;;;;;8.57;100.00;96616.31;6159235;23;20017;-93
2023/04/18 07:16:31;;;;;;;24.37;16.87;;;;;;;8.43;100.00;96607.06;6184585;23;20023;-95
2023/04/18 07:19:01;;;;;;;24.07;16.53;;;;;;;8.64;100.00;96609.56;6159875;23;20017;-94
2023/04/18 07:21:27;;;;;;;24.53;16.37;;;;;;;9.31;100.00;96600.75;6183912;23;20538;-94
2023/04/18 07:23:55;;;;;;;23.97;16.90;;;;;;;8.62;100.00;96604.47;6161214;23;20005;-94
2023/04/18 07:26:25;;;;;;;20.97;14.93;;;;;;;8.90;100.00;96620.31;6160390;23;20080;-94
2023/04/18 07:28:51;;;;;;;23.33;16.07;;;;;;;8.89;100.00;96616.88;6160657;23;20016;-94
2023/04/18 07:31:18;;;;;;;23.37;16.23;;;;;;;8.82;100.00;96610.53;6185123;23;20047;-94
2023/04/18 07:33:43;;;;;;;18.93;15.03;;;;;;;8.79;100.00;96612.59;6160222;23;20001;-94
2023/04/18 07:36:09;;;;;;;22.30;15.57;;;;;;;8.85;100.00;96619.88;6160135;23;20012;-94
2023/04/18 07:38:35;;;;;;;21.67;15.33;;;;;;;8.66;100.00;96620.75;6160980;23;19997;-94
2023/04/18 07:41:01;;;;;;;24.33;15.97;;;;;;;8.60;100.00;96616.88;6161200;23;20009;-94
2023/04/18 07:43:27;;;;;;;20.50;15.20;;;;;;;8.63;100.00;96627.06;6161552;23;20012;-94
2023/04/18 07:45:53;;;;;;;21.73;15.13;;;;;;;8.54;100.00;96622.66;6185419;23;20005;-94
2023/04/18 07:48:26;;;;;;;27.73;17.10;;;;;;;8.62;100.00;96628.06;6174963;23;20021;-94
2023/04/18 07:50:52;;;;;;;;;;;;;;;8.83;100.00;96632.31;6202865;23;20035;-93
2023/04/18 07:53:17;;;;;;;25.87;16.20;;;;;;;8.68;100.00;96635.34;6195501;23;19908;-94
2023/04/18 07:56:13;;;;;;;20.37;14.30;;;;;;;8.78;100.00;96632.72;6186333;23;20005;-94
2023/04/18 07:58:38;;;;;;;23.60;16.57;;;;;;;8.29;100.00;96639.69;6162758;23;20572;-95
2023/04/18 08:01:05;;;;;;;23.17;15.93;;;;;;;8.23;100.00;96643.69;6186620;23;20013;-95
2023/04/18 08:03:33;;;;;;;22.10;16.17;;;;;;;8.55;100.00;96639.19;6160566;23;20424;-94
2023/04/18 08:06:01;;;;;;;21.50;15.23;;;;;;;8.65;100.00;96640.03;6162146;23;20064;-95
2023/04/18 08:08:27;;;;;;;22.57;15.80;;;;;;;8.79;100.00;96637.03;6163548;23;20009;-94
2023/04/18 08:10:53;;;;;;;23.30;16.43;;;;;;;8.77;100.00;96640.75;6186431;23;20020;-95
2023/04/18 08:13:18;;;;;;;22.07;15.87;;;;;;;8.84;100.00;96634.81;6188202;23;20009;-94
2023/04/18 08:15:45;;;;;;;22.07;15.03;;;;;;;8.84;100.00;96637.41;6188164;23;20668;-94
2023/04/18 08:18:16;;;;;;;23.30;16.83;;;;;;;9.08;100.00;96641.41;6162088;23;20063;-94
2023/04/18 08:20:42;;;;;;;19.17;14.30;;;;;;;8.92;100.00;96641.97;6185947;23;20041;-94
2023/04/18 08:23:08;;;;;;;21.93;15.73;;;;;;;9.26;100.00;96631.03;6160895;23;20469;-94
2023/04/18 08:25:35;;;;;;;22.20;16.27;;;;;;;9.52;100.00;96634.69;6185932;23;20012;-94
2023/04/18 08:28:23;;;;;;;21.73;14.77;;;;;;;9.05;100.00;96645.13;6161476;23;20017;-94
2023/04/18 08:30:53;;;;;;;19.70;13.97;;;;;;;9.18;100.00;96637.81;6185295;23;20016;-95
2023/04/18 08:33:22;;;;;;;20.53;13.63;;;;;;;9.75;100.00;96634.34;6186064;23;20375;-94
2023/04/18 08:35:53;;;;;;;19.57;13.20;;;;;;;9.88;100.00;96629.59;6161102;23;20013;-95
2023/04/18 08:38:18;;;;;;;20.63;14.70;;;;;;;9.89;100.00;96623.34;6191813;23;20009;-94
2023/04/18 08:40:46;;;;;;;20.10;13.97;;;;;;;10.27;100.00;96630.25;6175779;23;20036;-95
2023/04/18 08:43:13;;;;;;;19.60;14.20;;;;;;;10.20;100.00;96623.91;6169724;23;20433;-94
2023/04/18 08:45:43;;;;;;;20.80;12.97;;;;;;;10.29;100.00;96622.22;6158863;23;20039;-95
2023/04/18 08:48:17;;;;;;;17.70;13.13;;;;;;;10.50;100.00;96622.78;6159339;23;20009;-95
2023/04/18 08:50:44;;;;;;;15.60;10.80;;;;;;;10.41;100.00;96626.28;6159899;23;20013;-94
2023/04/18 08:53:11;;;;;;;16.53;11.80;;;;;;;10.51;100.00;96629.69;6184603;23;20029;-95
2023/04/18 08:55:36;;;;;;;18.73;12.07;;;;;;;10.10;100.00;96621.31;6160004;23;20437;-94
2023/04/18 08:58:11;;;;;;;18.43;12.10;;;;;;;10.24;100.00;96630.50;6160442;23;20001;-95
2023/04/18 09:00:36;;;;;;;16.43;11.53;;;;;;;10.34;100.00;96633.94;6184121;23;20048;-95
2023/04/18 09:03:02;;;;;;;18.13;11.90;;;;;;;10.44;100.00;96631.25;6185036;23;20017;-95
2023/04/18 09:05:34;;;;;;;16.93;11.47;;;;;;;10.61;100.00;96633.06;6185940;23;20020;-94
2023/04/18 09:12:04;;;;;;;17.53;11.60;;;;;;;10.66;100.00;96632.59;6183440;23;20039;-95
2023/04/18 09:14:31;;;;;;;19.63;11.90;;;;;;;10.53;100.00;96633.00;6185119;23;20047;-94
2023/04/18 09:16:57;;;;;;;18.73;12.23;;;;;;;11.00;100.00;96629.28;6159746;23;20020;-94
2023/04/18 09:19:22;;;;;;;16.67;10.17;;;;;;;11.02;100.00;96630.78;6159263;23;20013;-95
2023/04/18 09:22:00;;;;;;;14.57;10.80;;;;;;;11.02;100.00;96636.06;6184225;23;20020;-94
2023/04/18 09:24:27;;;;;;;14.37;10.13;;;;;;;11.36;100.00;96627.41;6183076;23;20008;-94
2023/04/18 09:26:54;;;;;;;13.50;9.90;;;;;;;11.24;100.00;96626.03;6158282;23;20013;-94
2023/04/18 09:29:40;;;;;;;14.30;9.80;;;;;;;11.23;100.00;96627.00;6158695;23;20021;-94
2023/04/18 09:32:06;;;;;;;14.73;10.20;;;;;;;11.36;100.00;96622.16;6183454;23;20012;-95
2023/04/18 09:34:32;;;;;;;14.27;9.80;;;;;;;11.06;100.00;96629.50;6160511;23;20019;-94
2023/04/18 09:37:12;;;;;;;14.57;9.43;;;;;;;11.06;100.00;96624.25;6187083;23;20013;-96
2023/04/18 09:39:41;;;;;;;14.17;9.93;;;;;;;11.48;100.00;96622.75;6163385;23;20013;-95
2023/04/18 09:42:41;;;;;;;15.27;10.20;;;;;;;11.50;100.00;96624.25;6163305;23;20009;-96
2023/04/18 09:45:07;;;;;;;13.10;9.63;;;;;;;11.47;100.00;96624.56;6163072;23;20013;-96
2023/04/18 09:47:35;;;;;;;15.07;10.07;;;;;;;11.62;100.00;96626.59;6187205;23;20040;-96
2023/04/18 09:50:30;;;;;;;14.73;9.83;;;;;;;11.70;100.00;96629.28;6162993;23;20004;-95
2023/04/18 09:52:57;;;;;;;15.23;9.87;;;;;;;11.80;100.00;96625.56;6187853;23;20036;-95
2023/04/18 09:55:22;;;;;;;15.70;9.53;;;;;;;11.75;100.00;96621.75;6186990;23;20437;-96
2023/04/18 09:57:52;;;;;;;12.43;8.47;;;;;;;11.73;100.00;96626.34;6187197;23;20013;-95
2023/04/18 10:00:23;;;;;;;14.27;9.13;;;;;;;11.50;100.00;96629.50;6165943;23;20005;-95
2023/04/18 10:03:09;;;;;;;15.83;10.40;;;;;;;11.72;100.00;96620.25;6187816;23;20017;-96
2023/04/18 10:05:37;;;;;;;12.30;8.40;;;;;;;11.81;100.00;96615.84;6188723;23;20016;-95
2023/04/18 10:08:03;;;;;;;12.97;8.80;;;;;;;11.95;100.00;96623.19;6163824;23;20005;-96
2023/04/18 10:10:29;;;;;;;12.77;8.50;;;;;;;12.04;100.00;96621.41;6162852;23;20463;-95
2023/04/18 10:12:56;;;;;;;11.97;8.47;;;;;;;11.73;100.00;96615.78;6181973;23;20084;-85
2023/04/18 10:15:27;;;;;;;12.77;9.30;;;;;;;11.71;100.00;96617.78;6175948;23;20120;-91
2023/04/18 10:18:02;;;;;;;13.45;9.27;;;;;;;11.92;100.00;96620.03;6182408;23;20035;-91
2023/04/18 10:20:29;;;;;;;13.00;8.60;;;;;;;12.11;100.00;96618.97;6183511;23;20020;-93
2023/04/18 10:22:57;;;;;;;14.80;9.67;;;;;;;11.80;100.00;96619.44;6165170;23;20028;-92
2023/04/18 10:25:38;;;;;;;12.53;8.00;;;;;;;11.63;100.00;96622.97;6172020;23;20305;-92
2023/04/18 10:28:06;;;;;;;12.80;8.37;;;;;;;11.34;100.00;96621.50;6173141;23;20457;-92
2023/04/18 10:30:41;;;;;;;13.60;9.03;;;;;;;11.35;100.00;96620.50;6188494;23;20464;-94
2023/04/18 10:33:29;;;;;;;15.60;10.57;;;;;;;11.42;100.00;96626.00;6156296;23;20009;-93
2023/04/18 10:36:04;;;;;;;17.13;10.83;;;;;;;11.43;100.00;96627.63;6182487;23;20047;-93
2023/04/18 10:38:31;;;;;;;14.57;10.00;;;;;;;11.57;100.00;96620.00;6182303;23;20009;-92
2023/04/18 10:41:17;;;;;;;11.90;7.90;;;;;;;11.59;100.00;96626.91;6158330;23;20017;-92
2023/04/18 10:44:14;;;;;;;10.50;7.10;;;;;;;11.89;100.00;96628.25;6183373;23;20092;-93
2023/04/18 10:46:42;;;;;;;11.60;6.80;;;;;;;12.06;100.00;96623.88;6158417;23;20097;-92
2023/04/18 10:49:26;;;;;;;11.07;7.07;;;;;;;11.98;100.00;96617.59;6157080;23;20016;-92
2023/04/18 10:52:04;;;;;;;11.48;7.32;;;;;;;11.69;100.00;96617.91;6182567;23;20555;-93
2023/04/18 10:54:45;;;;;;;11.37;6.63;;;;;;;11.65;100.00;96621.03;6161988;23;20034;-91
2023/04/18 10:57:22;;;;;;;12.47;6.90;;;;;;;11.85;100.00;96622.47;6186656;23;20013;-91
2023/04/18 10:59:51;;;;;;;15.03;7.30;;;;;;;12.36;100.00;96618.06;6186124;23;20013;-90
2023/04/18 11:02:24;;;;;;;11.17;7.37;;;;;;;12.82;100.00;96615.84;6162295;23;20013;-91
2023/04/18 11:04:55;;;;;;;10.55;6.53;;;;;;;12.79;100.00;96604.78;6187954;23;20013;-91
2023/04/18 11:07:39;;;;;;;9.70;6.13;;;;;;;12.67;100.00;96612.16;6191325;23;20017;-91
2023/04/18 11:10:18;;;;;;;10.03;6.77;;;;;;;13.12;100.00;96606.44;6187977;23;20009;-90
2023/04/18 11:13:03;;;;;;;12.30;7.20;;;;;;;13.04;100.00;96610.88;6186551;23;20128;-90
2023/04/18 11:15:48;;;;;;;12.13;7.87;;;;;;;13.19;100.00;96602.13;6188299;23;20017;-90
2023/04/18 11:18:40;;;;;;;9.47;6.40;;;;;;;13.66;100.00;96593.50;6163297;23;20009;-90
2023/04/18 11:21:08;;;;;;;10.17;6.37;;;;;;;13.15;100.00;96587.63;6200610;23;20096;-90
2023/04/18 11:23:49;;;;;;;8.83;6.43;;;;;;;13.80;100.00;96589.31;6199495;23;20000;-85
2023/04/18 11:26:41;;;;;;;11.00;6.70;;;;;;;12.89;100.00;96616.00;6194259;23;20021;-92
2023/04/18 11:29:10;;;;;;;9.70;6.07;;;;;;;13.18;100.00;96591.75;6166156;23;20453;-93
2023/04/18 11:32:11;;;;;;;9.47;5.90;;;;;;;12.89;100.00;96600.97;6163129;23;20008;-91